K3MJW-2 Weather Reports


Display with metric or nautical units.
time (UTC)temp
F
wind
direction
speed
MPH
gust
MPH
rain 1hr
in
rain 24hr
in
rain mn
in
humidity
%
barometer
mb
20180818085011 70 193 0.0 0.0 0.00 0.36 0.00 86 1011.2
20180818084010 70 193 0.0 0.0 0.00 0.36 0.00 87 1011.1
20180818083010 70 193 0.0 0.0 0.00 0.36 0.00 87 1011.2
20180818082011 69 193 0.0 0.0 0.00 0.36 0.00 87 1011.2
20180818081010 69 193 0.0 0.0 0.00 0.36 0.00 87 1011.3
20180818080010 69 193 0.0 0.0 0.00 0.36 0.00 87 1011.2
20180818075010 69 193 0.0 0.0 0.00 0.36 0.00 87 1011.4
20180818074010 69 193 0.0 0.0 0.00 0.36 0.00 87 1011.5
20180818073011 69 193 0.0 0.0 0.00 0.36 0.00 87 1011.5
20180818072010 69 193 0.0 0.0 0.00 0.36 0.00 87 1011.6
20180818071010 68 193 0.0 0.0 0.00 0.36 0.00 87 1011.6
20180818070010 68 193 0.0 0.0 0.00 0.36 0.00 87 1011.6
20180818065010 68 193 0.0 0.0 0.00 0.36 0.00 87 1011.5
20180818064010 68 193 0.0 0.0 0.00 0.36 0.00 87 1011.5
20180818063010 67 193 0.0 0.0 0.00 0.36 0.00 86 1011.6
20180818062010 67 193 0.0 0.0 0.00 0.36 0.00 86 1011.7
20180818061010 67 193 0.0 0.0 0.00 0.36 0.00 86 1011.8
20180818060010 67 193 0.0 0.0 0.00 0.36 0.00 86 1011.8
20180818055010 67 193 0.0 0.0 0.00 0.36 0.00 86 1011.9
20180818054010 67 193 0.0 0.0 0.00 0.36 0.00 86 1011.9
20180818053010 67 193 0.0 0.0 0.00 0.36 0.00 86 1011.8
20180818052010 67 193 0.0 0.0 0.00 0.36 0.00 86 1012.0
20180818051010 67 193 0.0 0.0 0.00 0.36 0.00 86 1012.3
20180818050010 67 193 0.0 0.0 0.00 0.36 0.00 86 1012.4
20180818045010 67 193 0.0 0.0 0.00 0.36 0.00 86 1012.5
20180818044010 67 193 0.0 0.0 0.00 0.36 0.00 86 1012.4
20180818043010 67 193 0.0 0.0 0.00 0.36 0.00 86 1012.5
20180818042010 67 193 0.0 0.0 0.00 0.36 0.00 86 1012.4
20180818041010 67 193 0.0 0.0 0.00 0.36 0.00 86 1012.5
20180818040010 67 193 0.0 0.0 0.00 0.36 0.00 86 1012.5
20180818035011 67 193 0.0 0.0 0.00 0.36 0.36 86 1012.5
20180818034011 67 193 0.0 0.0 0.00 0.36 0.36 86 1012.5
20180818033010 67 193 0.0 0.0 0.00 0.36 0.36 86 1012.7
20180818032010 67 193 0.0 0.0 0.00 0.36 0.36 86 1012.6
20180818031010 67 193 0.0 0.0 0.00 0.36 0.36 86 1012.7
20180818030010 67 193 0.0 0.0 0.00 0.36 0.36 86 1012.6
20180818025010 67 193 0.0 0.0 0.00 0.36 0.36 86 1012.7
20180818024010 67 193 0.0 0.0 0.00 0.36 0.36 86 1012.8
20180818023010 67 193 0.0 0.0 0.00 0.36 0.36 86 1012.8
20180818022010 67 193 0.0 0.0 0.00 0.36 0.36 86 1012.7
20180818021010 67 193 0.0 0.0 0.00 0.36 0.36 86 1012.8
20180818020009 67 193 0.0 0.0 0.00 0.36 0.36 86 1012.8
20180818015009 68 193 0.0 0.0 0.00 0.36 0.36 85 1012.9
20180818014010 68 193 0.0 0.0 0.00 0.36 0.36 86 1013.0
20180818013010 68 193 0.0 0.0 0.00 0.36 0.36 85 1013.0
20180818012010 68 193 0.0 0.0 0.00 0.36 0.36 85 1013.0
20180818011010 68 193 0.0 0.0 0.00 0.36 0.36 85 1013.0
20180818010011 68 193 0.0 0.0 0.01 0.36 0.36 85 1013.0
20180818005010 68 193 0.0 0.0 0.02 0.36 0.36 85 1012.9
20180818004010 69 193 0.0 5.0 0.04 0.36 0.36 84 1012.9
20180818003010 69 164 0.0 3.0 0.07 0.36 0.36 84 1012.8
20180818002010 70 268 0.0 0.0 0.10 0.36 0.36 84 1012.7
20180818001010 70 268 0.0 0.0 0.11 0.36 0.36 84 1012.8
20180818000010 70 268 0.0 0.0 0.11 0.35 0.35 83 1012.7
20180817235010 71 268 0.0 0.0 0.10 0.34 0.34 82 1012.4
20180817234010 72 268 0.0 0.0 0.08 0.32 0.32 83 1012.3
20180817233010 73 268 0.0 0.0 0.05 0.29 0.29 82 1012.4
20180817232010 73 268 0.0 0.0 0.02 0.26 0.26 82 1012.2
20180817231010 73 268 0.0 0.0 0.01 0.25 0.25 82 1012.1
20180817230011 73 268 0.0 0.0 0.00 0.24 0.24 82 1011.8
20180817225010 74 268 0.0 0.0 0.01 0.24 0.24 81 1011.6
20180817224010 74 268 0.0 0.0 0.01 0.24 0.24 81 1011.5
20180817223009 74 268 0.0 0.0 0.01 0.24 0.24 80 1011.5
20180817222010 74 268 0.0 0.0 0.01 0.24 0.24 79 1011.2
20180817221010 75 268 0.0 0.0 0.01 0.24 0.24 78 1011.4
20180817220010 75 268 0.0 2.0 0.01 0.24 0.24 77 1011.4
20180817215010 76 254 1.0 5.0 0.00 0.24 0.23 75 1011.7
20180817214010 76 250 0.0 0.0 0.00 0.24 0.23 73 1011.6
20180817213010 77 250 1.0 7.0 0.00 0.25 0.23 72 1011.7
20180817212011 77 184 0.0 5.0 0.00 0.26 0.23 71 1011.9
20180817211010 77 222 0.0 6.0 0.00 0.26 0.23 74 1012.0
20180817210010 76 272 0.0 0.0 0.00 0.26 0.23 75 1012.0
20180817205011 76 272 0.0 0.0 0.00 0.26 0.23 74 1012.1
20180817204010 76 272 0.0 0.0 0.00 0.26 0.23 73 1012.2
20180817203009 76 272 0.0 0.0 0.00 0.27 0.23 73 1012.4
20180817202009 76 272 1.0 6.0 0.00 0.29 0.23 72 1012.6
20180817201009 76 157 1.0 7.0 0.00 0.31 0.23 73 1012.8
20180817200010 76 144 1.0 5.0 0.00 0.31 0.23 73 1012.8
20180817195010 77 213 0.0 3.0 0.00 0.31 0.23 71 1012.9
20180817194010 77 239 1.0 5.0 0.00 0.31 0.23 70 1012.8
20180817193010 77 268 0.0 7.0 0.00 0.31 0.23 71 1012.7
20180817192010 77 267 1.0 8.0 0.00 0.31 0.23 70 1012.8
20180817191010 77 209 2.0 6.0 0.00 0.31 0.23 72 1013.0
20180817190010 76 278 1.0 8.0 0.00 0.31 0.23 74 1013.1
20180817185010 76 254 1.0 6.0 0.00 0.31 0.23 77 1013.3
20180817184010 75 307 1.0 5.0 0.00 0.31 0.23 79 1013.3
20180817183010 75 195 0.0 6.0 0.00 0.31 0.23 80 1013.5
20180817182009 74 156 3.0 7.0 0.02 0.31 0.23 80 1013.5
20180817181010 74 287 0.0 7.0 0.02 0.31 0.23 81 1013.6
20180817180009 74 193 1.0 7.0 0.04 0.31 0.23 82 1013.6
20180817175010 74 227 0.0 7.0 0.04 0.31 0.23 82 1013.6
20180817174010 74 114 0.0 0.0 0.04 0.31 0.23 81 1013.6
20180817173009 74 114 0.0 5.0 0.04 0.31 0.23 81 1013.6
20180817172009 74 239 0.0 5.0 0.02 0.29 0.21 80 1013.5
20180817171010 75 230 1.0 3.0 0.02 0.29 0.21 78 1013.5
20180817170010 75 142 1.0 5.0 0.00 0.27 0.19 79 1013.6
20180817165010 75 196 1.0 5.0 0.01 0.27 0.19 80 1013.8
20180817164010 75 223 2.0 7.0 0.03 0.27 0.19 79 1013.9
20180817163009 75 193 0.0 3.0 0.17 0.27 0.19 80 1014.0
20180817162010 75 193 2.0 6.0 0.17 0.27 0.19 81 1014.1
20180817161010 74 217 0.0 3.0 0.17 0.27 0.19 83 1014.1
20180817160009 73 270 0.0 0.0 0.17 0.27 0.19 80 1014.1
20180817155010 74 270 0.0 0.0 0.16 0.26 0.18 76 1014.1
20180817154010 76 270 0.0 7.0 0.14 0.24 0.16 70 1014.2
20180817153011 76 292 0.0 5.0 0.00 0.10 0.02 69 1014.3
20180817152010 77 289 1.0 5.0 0.00 0.10 0.02 65 1014.3
20180817151010 77 318 0.0 7.0 0.00 0.10 0.02 70 1014.4
20180817150009 76 238 2.0 7.0 0.00 0.10 0.02 72 1014.4
20180817145010 76 171 1.0 7.0 0.00 0.10 0.02 71 1014.5
20180817144010 75 195 3.0 6.0 0.00 0.10 0.02 72 1014.5
20180817143010 74 195 2.0 8.0 0.00 0.10 0.02 74 1014.6
20180817142009 74 209 0.0 6.0 0.00 0.10 0.02 74 1014.7
20180817141010 73 217 1.0 6.0 0.00 0.10 0.02 76 1014.7
20180817140009 73 200 0.0 5.0 0.00 0.10 0.02 77 1014.8
20180817135009 72 193 0.0 5.0 0.00 0.10 0.02 78 1015.0
20180817134009 72 208 0.0 5.0 0.00 0.10 0.02 78 1015.0
20180817133009 72 191 0.0 0.0 0.00 0.10 0.02 78 1014.9
20180817132009 71 191 0.0 5.0 0.00 0.10 0.02 79 1015.2
20180817131009 71 216 0.0 5.0 0.00 0.10 0.02 80 1015.0
20180817130009 71 203 0.0 6.0 0.01 0.10 0.02 82 1015.1
20180817125010 70 202 0.0 0.0 0.01 0.10 0.02 82 1015.1
20180817124010 70 202 0.0 0.0 0.01 0.10 0.02 83 1015.0
20180817123010 69 202 0.0 0.0 0.01 0.10 0.02 82 1014.8
20180817122009 69 202 0.0 0.0 0.01 0.10 0.02 82 1014.8
20180817121009 69 202 0.0 0.0 0.01 0.10 0.02 82 1015.0
20180817120009 69 202 0.0 0.0 0.01 0.09 0.01 82 1014.9
20180817115010 69 202 0.0 0.0 0.01 0.09 0.01 82 1014.8
20180817114009 69 202 0.0 0.0 0.01 0.09 0.01 82 1014.8
20180817113010 69 202 0.0 0.0 0.01 0.09 0.01 81 1014.9
20180817112009 70 202 0.0 0.0 0.01 0.09 0.01 80 1014.9
20180817111010 70 202 0.0 7.0 0.01 0.09 0.01 79 1014.9
20180817110009 70 203 0.0 0.0 0.00 0.08 0.00 80 1014.8
20180817105010 70 203 0.0 0.0 0.00 0.08 0.00 80 1014.7
20180817104010 70 203 0.0 5.0 0.00 0.08 0.00 80 1014.9
20180817103009 69 202 1.0 5.0 0.00 0.08 0.00 80 1014.7
20180817102009 69 229 0.0 3.0 0.00 0.08 0.00 80 1014.8
20180817101010 69 181 0.0 0.0 0.00 0.08 0.00 81 1014.7
20180817100010 69 181 0.0 0.0 0.00 0.08 0.00 81 1014.7
20180817095009 69 181 0.0 0.0 0.00 0.08 0.00 81 1014.7
20180817094010 69 181 0.0 6.0 0.00 0.08 0.00 81 1014.6
20180817093010 69 188 0.0 5.0 0.00 0.08 0.00 81 1014.5
20180817092010 69 185 1.0 6.0 0.00 0.08 0.00 81 1014.6
20180817091009 69 179 0.0 0.0 0.00 0.08 0.00 81 1014.5
20180817090010 69 179 0.0 0.0 0.00 0.08 0.00 81 1014.6